createdAt,value
2019-03-21T00:00:29.774Z,1.10
2019-03-21T00:03:03.329Z,1.03
2019-03-21T00:05:37.026Z,0.93
2019-03-21T00:08:10.526Z,1.10
2019-03-21T00:11:07.449Z,1.10
2019-03-21T00:13:40.804Z,1.30
2019-03-21T00:16:14.573Z,1.20
2019-03-21T00:18:48.003Z,1.10
2019-03-21T00:21:21.470Z,1.00
2019-03-21T00:23:55.765Z,1.10
2019-03-21T00:26:31.245Z,1.10
2019-03-21T00:29:04.497Z,1.00
2019-03-21T00:31:37.891Z,1.10
2019-03-21T00:34:11.326Z,0.93
2019-03-21T00:36:44.715Z,0.90
2019-03-21T00:39:18.211Z,0.97
2019-03-21T00:41:51.842Z,0.90
2019-03-21T00:44:25.284Z,1.17
2019-03-21T00:46:58.707Z,1.00
2019-03-21T00:49:32.228Z,0.83
2019-03-21T00:52:05.623Z,1.10
2019-03-21T00:54:39.128Z,0.90
2019-03-21T00:57:12.467Z,1.10
2019-03-21T00:59:45.894Z,0.90
2019-03-21T01:02:19.362Z,1.07
2019-03-21T01:04:52.761Z,1.10
2019-03-21T01:07:26.084Z,1.13
2019-03-21T01:09:59.657Z,0.80
2019-03-21T01:12:33.486Z,1.00
2019-03-21T01:15:09.752Z,0.80
2019-03-21T01:17:43.079Z,1.00
2019-03-21T01:20:17.028Z,0.98
2019-03-21T01:22:50.864Z,0.97
2019-03-21T01:25:27.448Z,0.90
2019-03-21T01:28:00.786Z,0.90
2019-03-21T01:30:34.150Z,0.80
2019-03-21T01:33:07.591Z,1.00
2019-03-21T01:35:41.643Z,1.00
2019-03-21T01:38:15.050Z,1.03
2019-03-21T01:40:54.553Z,1.10
2019-03-21T01:43:27.982Z,1.10
2019-03-21T01:46:01.822Z,1.00
2019-03-21T01:48:35.269Z,1.10
2019-03-21T01:51:08.742Z,1.00
2019-03-21T01:53:42.187Z,0.97
2019-03-21T01:56:15.708Z,1.03
2019-03-21T01:58:49.159Z,1.20
2019-03-21T02:01:22.557Z,1.03
2019-03-21T02:03:56.107Z,1.00
2019-03-21T02:06:29.504Z,1.00
2019-03-21T02:09:04.840Z,1.00
2019-03-21T02:11:38.856Z,1.10
2019-03-21T02:14:12.519Z,1.17
2019-03-21T02:16:45.975Z,1.03
2019-03-21T02:19:19.531Z,0.93
2019-03-21T02:21:53.023Z,0.90
2019-03-21T02:24:26.721Z,1.00
2019-03-21T02:27:00.074Z,1.07
2019-03-21T02:29:33.512Z,1.03
2019-03-21T02:32:07.048Z,1.03
2019-03-21T02:34:40.534Z,0.80
2019-03-21T02:37:13.980Z,1.07
2019-03-21T02:39:58.522Z,1.37
2019-03-21T02:42:22.592Z,1.30
2019-03-21T02:45:07.556Z,1.50
2019-03-21T02:47:31.205Z,1.40
2019-03-21T02:50:08.119Z,1.40
2019-03-21T02:52:41.564Z,1.30
2019-03-21T02:55:15.132Z,1.30
2019-03-21T02:57:48.641Z,1.33
2019-03-21T03:00:27.775Z,1.40
2019-03-21T03:03:01.564Z,1.33
2019-03-21T03:05:36.023Z,1.20
2019-03-21T03:08:10.161Z,1.30
2019-03-21T03:10:46.824Z,1.20
2019-03-21T03:13:20.371Z,1.30
2019-03-21T03:15:53.954Z,1.20
2019-03-21T03:18:27.640Z,1.30
2019-03-21T03:21:01.171Z,1.80
2019-03-21T03:23:34.641Z,0.40
2019-03-21T03:26:08.119Z,0.47
2019-03-21T03:28:48.326Z,0.50
2019-03-21T03:31:21.870Z,1.30
2019-03-21T03:33:55.612Z,0.93
2019-03-21T03:36:29.154Z,1.00
2019-03-21T03:39:02.654Z,1.00
2019-03-21T03:41:36.482Z,1.10
2019-03-21T03:44:09.981Z,0.97
2019-03-21T03:46:43.577Z,0.90
2019-03-21T03:49:17.102Z,2.87
2019-03-21T03:51:50.575Z,29.23
2019-03-21T03:54:24.046Z,83.73
2019-03-21T03:56:57.494Z,3.47
2019-03-21T03:59:31.035Z,1.63
2019-03-21T04:02:04.530Z,1.30
2019-03-21T04:04:38.248Z,1.50
2019-03-21T04:07:11.711Z,1.90
2019-03-21T04:09:45.128Z,1.70
2019-03-21T04:12:18.587Z,1.60
2019-03-21T04:14:52.085Z,1.70
2019-03-21T04:17:25.519Z,1.80
2019-03-21T04:19:58.903Z,1.80
2019-03-21T04:22:32.373Z,1.00
2019-03-21T04:25:09.190Z,28.33
2019-03-21T04:27:42.885Z,0.90
2019-03-21T04:30:18.121Z,1.10
2019-03-21T04:32:51.634Z,1.10
2019-03-21T04:35:25.191Z,1.23
2019-03-21T04:37:58.676Z,1.20
2019-03-21T04:40:32.033Z,1.10
2019-03-21T04:43:05.559Z,1.10
2019-03-21T04:45:39.006Z,1.27
2019-03-21T04:48:12.452Z,1.70
2019-03-21T04:50:46.184Z,1.70
2019-03-21T04:53:19.531Z,2.07
2019-03-21T04:55:53.128Z,2.10
2019-03-21T04:58:26.475Z,2.00
2019-03-21T05:01:00.381Z,2.33
2019-03-21T05:03:34.340Z,2.47
2019-03-21T05:06:07.721Z,2.60
2019-03-21T05:08:41.209Z,2.73
2019-03-21T05:11:14.866Z,2.47
2019-03-21T05:13:48.395Z,2.40
2019-03-21T05:16:21.962Z,2.67
2019-03-21T05:18:58.305Z,2.50
2019-03-21T05:21:31.843Z,2.60
2019-03-21T05:24:05.509Z,2.97
2019-03-21T05:26:39.132Z,2.73
2019-03-21T05:29:12.623Z,2.47
2019-03-21T05:31:46.342Z,2.33
2019-03-21T05:34:19.764Z,2.53
2019-03-21T05:36:53.292Z,2.87
2019-03-21T05:39:26.710Z,2.43
2019-03-21T05:42:00.156Z,2.63
2019-03-21T05:44:36.723Z,2.90
2019-03-21T05:47:10.117Z,2.30
2019-03-21T05:49:43.624Z,2.50
2019-03-21T05:52:17.250Z,2.40
2019-03-21T05:54:50.730Z,2.60
2019-03-21T05:57:24.292Z,2.87
2019-03-21T05:59:57.677Z,2.80
2019-03-21T06:02:31.159Z,2.70
2019-03-21T06:05:05.949Z,2.80
2019-03-21T06:07:42.624Z,3.00
2019-03-21T06:10:18.670Z,2.30
2019-03-21T06:12:52.132Z,2.60
2019-03-21T06:15:29.011Z,3.40
2019-03-21T06:18:33.316Z,10.97
2019-03-21T06:21:12.851Z,10.83
2019-03-21T06:23:57.520Z,9.30
2019-03-21T06:26:50.752Z,9.90
2019-03-21T06:29:24.351Z,9.50
2019-03-21T06:31:57.796Z,8.73
2019-03-21T06:34:31.391Z,8.87
2019-03-21T06:37:04.927Z,10.10
2019-03-21T06:39:38.465Z,8.77
2019-03-21T06:42:12.024Z,9.77
2019-03-21T06:44:45.495Z,8.73
2019-03-21T06:47:19.065Z,9.85
2019-03-21T06:49:52.630Z,9.00
2019-03-21T06:52:26.147Z,8.53
2019-03-21T06:55:00.019Z,8.60
2019-03-21T06:57:33.466Z,9.33
2019-03-21T07:00:08.996Z,8.50
2019-03-21T07:02:42.422Z,8.27
2019-03-21T07:05:15.952Z,8.03
2019-03-21T07:07:49.319Z,7.70
2019-03-21T07:10:22.852Z,7.93
2019-03-21T07:12:56.326Z,8.25
2019-03-21T07:15:29.891Z,7.87
2019-03-21T07:18:03.478Z,7.17
2019-03-21T07:20:36.997Z,7.90
2019-03-21T07:23:10.446Z,7.28
2019-03-21T07:25:43.965Z,6.78
2019-03-21T07:28:17.488Z,7.95
2019-03-21T07:30:50.984Z,7.25
2019-03-21T07:33:24.527Z,7.12
2019-03-21T07:35:57.926Z,7.33
2019-03-21T07:38:31.394Z,7.08
2019-03-21T07:41:04.859Z,7.20
2019-03-21T07:43:38.329Z,7.03
2019-03-21T07:46:11.781Z,6.83
2019-03-21T07:48:45.349Z,6.97
2019-03-21T07:51:18.806Z,6.97
2019-03-21T07:53:52.299Z,6.90
2019-03-21T07:56:25.925Z,6.42
2019-03-21T07:58:59.307Z,6.53
2019-03-21T08:01:32.881Z,6.28
2019-03-21T08:04:06.488Z,6.05
2019-03-21T08:06:39.878Z,6.40
2019-03-21T08:09:13.595Z,5.53
2019-03-21T08:11:46.974Z,5.50
2019-03-21T08:14:20.577Z,6.08
2019-03-21T08:16:54.078Z,5.72
2019-03-21T08:19:27.500Z,5.67
2019-03-21T08:22:01.097Z,6.10
2019-03-21T08:24:34.594Z,5.90
2019-03-21T08:27:08.054Z,5.78
2019-03-21T08:29:41.490Z,5.78
2019-03-21T08:32:14.966Z,6.03
2019-03-21T08:34:48.460Z,5.90
2019-03-21T08:37:21.926Z,5.95
2019-03-21T08:39:55.475Z,6.08
2019-03-21T08:42:29.057Z,6.42
2019-03-21T08:45:02.576Z,6.05
2019-03-21T08:47:37.153Z,6.53
2019-03-21T08:50:13.747Z,6.85
2019-03-21T08:52:47.137Z,6.50
2019-03-21T08:55:20.668Z,6.47
2019-03-21T08:57:54.121Z,6.53
2019-03-21T09:00:34.110Z,5.97
2019-03-21T09:03:02.816Z,6.45
2019-03-21T09:05:36.251Z,6.00
2019-03-21T09:08:09.743Z,6.58
2019-03-21T09:10:43.322Z,7.03
2019-03-21T09:13:16.792Z,7.47
2019-03-21T09:15:50.293Z,4.67
2019-03-21T09:18:25.867Z,3.90
2019-03-21T09:20:59.216Z,3.10
2019-03-21T09:23:32.687Z,3.00
2019-03-21T09:26:06.204Z,2.35
2019-03-21T09:28:39.650Z,2.67
2019-03-21T09:31:13.129Z,2.58
2019-03-21T09:33:46.609Z,2.20
2019-03-21T09:36:20.042Z,2.40
2019-03-21T09:38:53.597Z,2.60
2019-03-21T09:41:27.020Z,2.37
2019-03-21T09:44:00.512Z,2.30
2019-03-21T09:46:33.985Z,2.55
2019-03-21T09:49:07.515Z,2.17
2019-03-21T09:51:40.896Z,2.50
2019-03-21T09:54:14.421Z,2.42
2019-03-21T09:56:48.008Z,2.33
2019-03-21T09:59:21.550Z,2.40
2019-03-21T10:01:55.006Z,1.75
2019-03-21T10:04:28.463Z,1.60
2019-03-21T10:07:01.978Z,1.45
2019-03-21T10:09:35.418Z,1.50
2019-03-21T10:12:08.771Z,1.40
2019-03-21T10:14:42.208Z,1.75
2019-03-21T10:17:15.616Z,1.60
2019-03-21T10:19:49.153Z,1.47
2019-03-21T10:22:22.564Z,1.60
2019-03-21T10:24:55.936Z,1.57
2019-03-21T10:27:29.495Z,1.70
2019-03-21T10:30:03.788Z,1.70
2019-03-21T10:32:37.300Z,1.50
2019-03-21T10:35:10.746Z,1.50
2019-03-21T10:37:44.196Z,1.50
2019-03-21T10:40:17.669Z,1.55
2019-03-21T10:42:51.192Z,1.80
2019-03-21T10:45:24.713Z,1.62
2019-03-21T10:47:58.247Z,1.50
2019-03-21T10:50:34.117Z,1.40
2019-03-21T10:53:07.863Z,1.40
2019-03-21T10:55:41.327Z,1.40
2019-03-21T10:58:15.041Z,1.50
2019-03-21T11:00:48.519Z,1.77
2019-03-21T11:03:21.949Z,1.62
2019-03-21T11:05:55.484Z,1.70
2019-03-21T11:08:28.956Z,1.50
2019-03-21T11:11:02.453Z,1.50
2019-03-21T11:13:36.078Z,1.60
2019-03-21T11:16:09.580Z,1.67
2019-03-21T11:18:43.030Z,1.70
2019-03-21T11:21:16.453Z,1.60
2019-03-21T11:23:49.935Z,1.50
2019-03-21T11:26:23.561Z,1.75
2019-03-21T11:28:57.043Z,1.62
2019-03-21T11:31:30.412Z,1.50
2019-03-21T11:34:03.979Z,1.60
2019-03-21T11:36:38.678Z,1.50
2019-03-21T11:39:12.471Z,1.70
2019-03-21T11:41:45.907Z,1.70
2019-03-21T11:44:19.349Z,1.50
2019-03-21T11:46:52.771Z,1.70
2019-03-21T11:49:26.292Z,1.75
2019-03-21T11:51:59.768Z,1.80
2019-03-21T11:54:33.373Z,1.50
2019-03-21T11:57:08.347Z,1.60
2019-03-21T11:59:51.473Z,1.60
2019-03-21T12:02:26.774Z,17.35
2019-03-21T12:04:52.255Z,12.23
2019-03-21T12:07:25.685Z,11.97
2019-03-21T12:09:59.468Z,12.60
2019-03-21T12:12:32.882Z,10.90
2019-03-21T12:15:07.919Z,11.53
2019-03-21T12:17:41.343Z,10.85
2019-03-21T12:20:29.103Z,10.95
2019-03-21T12:23:02.680Z,11.95
2019-03-21T12:25:36.078Z,9.35
2019-03-21T12:28:09.738Z,9.75
2019-03-21T12:30:43.314Z,11.33
2019-03-21T12:33:16.741Z,11.63
2019-03-21T12:35:50.274Z,10.90
2019-03-21T12:38:23.875Z,10.68
2019-03-21T12:40:57.510Z,9.98
2019-03-21T12:43:31.011Z,11.93
2019-03-21T12:46:04.553Z,10.78
2019-03-21T12:48:37.978Z,11.00
2019-03-21T12:51:11.779Z,13.05
2019-03-21T12:53:45.323Z,10.18
2019-03-21T12:56:18.852Z,10.75
2019-03-21T12:58:52.626Z,10.08
2019-03-21T13:01:26.250Z,11.08
2019-03-21T13:03:59.801Z,10.35
2019-03-21T13:06:33.350Z,10.30
2019-03-21T13:09:08.309Z,10.55
2019-03-21T13:11:41.797Z,9.30
2019-03-21T13:14:15.259Z,10.70
2019-03-21T13:16:48.639Z,6.03
2019-03-21T13:19:22.063Z,22.77
2019-03-21T13:21:55.458Z,22.65
2019-03-21T13:24:29.057Z,23.67
2019-03-21T13:27:02.580Z,21.85
2019-03-21T13:29:36.028Z,21.85
2019-03-21T13:32:09.519Z,22.20
2019-03-21T13:34:42.920Z,21.48
2019-03-21T13:37:16.393Z,20.85
2019-03-21T13:39:49.798Z,21.37
2019-03-21T13:42:23.256Z,21.35
2019-03-21T13:44:56.625Z,20.48
2019-03-21T13:47:30.050Z,21.25
2019-03-21T13:50:04.749Z,19.85
2019-03-21T13:52:38.294Z,22.62
2019-03-21T13:55:13.110Z,22.35
2019-03-21T13:57:46.578Z,1.10
2019-03-21T14:00:21.686Z,0.90
2019-03-21T14:02:55.214Z,1.30
2019-03-21T14:05:28.810Z,1.90
2019-03-21T14:08:02.308Z,1.70
2019-03-21T14:10:35.792Z,1.40
2019-03-21T14:13:09.455Z,1.25
2019-03-21T14:15:42.870Z,1.05
2019-03-21T14:18:16.284Z,0.93
2019-03-21T14:20:49.764Z,1.20
2019-03-21T14:23:23.223Z,1.12
2019-03-21T14:25:56.643Z,1.20
2019-03-21T14:28:30.044Z,1.20
2019-03-21T14:31:03.501Z,1.15
2019-03-21T14:33:36.982Z,1.35
2019-03-21T14:36:10.479Z,1.47
2019-03-21T14:38:43.961Z,1.37
2019-03-21T14:41:17.435Z,1.42
2019-03-21T14:43:50.777Z,1.40
2019-03-21T14:46:24.197Z,1.37
2019-03-21T14:48:57.680Z,1.60
2019-03-21T14:51:31.105Z,1.75
2019-03-21T14:54:04.558Z,1.60
2019-03-21T14:56:38.203Z,1.30
2019-03-21T14:59:11.848Z,1.30
2019-03-21T15:01:45.272Z,1.40
2019-03-21T15:04:18.997Z,1.30
2019-03-21T15:06:52.646Z,1.20
2019-03-21T15:09:26.111Z,1.20
2019-03-21T15:11:59.761Z,1.07
2019-03-21T15:14:33.445Z,1.20
2019-03-21T15:17:06.970Z,1.17
2019-03-21T15:19:40.418Z,1.32
2019-03-21T15:22:13.898Z,0.70
2019-03-21T15:24:47.337Z,0.70
2019-03-21T15:27:20.713Z,0.60
2019-03-21T15:29:54.281Z,21.33
2019-03-21T15:32:28.089Z,26.00
2019-03-21T15:35:01.934Z,27.00
2019-03-21T15:37:35.785Z,28.52
2019-03-21T15:40:12.061Z,29.02
2019-03-21T15:42:45.620Z,28.45
2019-03-21T15:45:23.783Z,27.40
2019-03-21T15:47:54.472Z,25.37
2019-03-21T15:50:37.761Z,27.22
2019-03-21T15:53:10.367Z,28.15
2019-03-21T15:55:43.788Z,27.35
2019-03-21T15:58:17.346Z,26.33
2019-03-21T16:00:50.786Z,25.80
2019-03-21T16:03:24.205Z,26.42
2019-03-21T16:05:57.624Z,28.42
2019-03-21T16:08:31.147Z,29.50
2019-03-21T16:11:04.649Z,27.37
2019-03-21T16:13:38.220Z,27.20
2019-03-21T16:16:11.579Z,27.98
2019-03-21T16:18:45.036Z,24.87
2019-03-21T16:21:18.535Z,25.95
2019-03-21T16:24:04.148Z,25.02
2019-03-21T16:26:27.043Z,24.45
2019-03-21T16:29:00.437Z,26.82
2019-03-21T16:31:33.792Z,26.02
2019-03-21T16:34:07.439Z,25.52
2019-03-21T16:36:40.863Z,25.97
2019-03-21T16:39:14.329Z,26.68
2019-03-21T16:41:47.757Z,26.73
2019-03-21T16:44:21.147Z,26.62
2019-03-21T16:46:54.506Z,26.55
2019-03-21T16:49:27.952Z,27.05
2019-03-21T16:52:01.383Z,25.82
2019-03-21T16:54:34.772Z,24.70
2019-03-21T16:57:08.135Z,23.60
2019-03-21T16:59:41.577Z,24.18
2019-03-21T17:02:15.081Z,25.72
2019-03-21T17:04:48.493Z,24.30
2019-03-21T17:07:22.260Z,29.12
2019-03-21T17:09:58.050Z,26.02
2019-03-21T17:12:31.720Z,27.45
2019-03-21T17:15:07.230Z,29.48
2019-03-21T17:17:40.727Z,31.65
2019-03-21T17:20:14.543Z,29.15
2019-03-21T17:22:47.937Z,30.37
2019-03-21T17:25:21.371Z,27.73
2019-03-21T17:27:55.078Z,26.97
2019-03-21T17:30:28.555Z,27.17
2019-03-21T17:33:01.920Z,26.00
2019-03-21T17:35:35.759Z,27.80
2019-03-21T17:38:09.178Z,23.95
2019-03-21T17:40:42.955Z,25.12
2019-03-21T17:43:16.618Z,23.90
2019-03-21T17:45:50.141Z,24.07
2019-03-21T17:48:23.564Z,27.02
2019-03-21T17:50:56.995Z,25.75
2019-03-21T17:53:30.483Z,25.45
2019-03-21T17:56:04.344Z,27.52
2019-03-21T17:58:37.721Z,24.55
2019-03-21T18:01:11.246Z,25.60
2019-03-21T18:03:44.670Z,26.15
2019-03-21T18:06:18.222Z,24.77
2019-03-21T18:08:51.714Z,23.55
2019-03-21T18:11:25.194Z,26.10
2019-03-21T18:13:58.676Z,24.65
2019-03-21T18:16:32.244Z,26.23
2019-03-21T18:19:05.716Z,25.25
2019-03-21T18:21:39.183Z,27.25
2019-03-21T18:24:12.679Z,24.18
2019-03-21T18:26:46.175Z,28.32
2019-03-21T18:29:19.631Z,27.42
2019-03-21T18:31:53.051Z,26.82
2019-03-21T18:34:26.520Z,26.68
2019-03-21T18:37:00.123Z,24.60
2019-03-21T18:39:33.535Z,28.32
2019-03-21T18:42:07.136Z,27.65
2019-03-21T18:44:40.631Z,28.32
2019-03-21T18:47:14.090Z,28.00
2019-03-21T18:49:48.076Z,28.30
2019-03-21T18:52:21.666Z,28.32
2019-03-21T18:55:05.611Z,28.45
2019-03-21T18:57:30.282Z,27.77
2019-03-21T19:00:12.621Z,28.20
2019-03-21T19:02:46.138Z,28.83
2019-03-21T19:05:19.816Z,30.00
2019-03-21T19:07:53.561Z,28.62
2019-03-21T19:10:27.185Z,30.70
2019-03-21T19:13:00.710Z,30.50
2019-03-21T19:15:34.680Z,30.30
2019-03-21T19:18:08.390Z,29.87
2019-03-21T19:20:42.182Z,28.67
2019-03-21T19:23:15.866Z,28.62
2019-03-21T19:25:49.373Z,31.40
2019-03-21T19:28:22.967Z,28.35
2019-03-21T19:30:56.643Z,31.48
2019-03-21T19:33:30.347Z,30.43
2019-03-21T19:36:03.808Z,29.82
2019-03-21T19:38:37.370Z,31.87
2019-03-21T19:41:10.943Z,34.05
2019-03-21T19:43:44.482Z,31.17
2019-03-21T19:46:18.150Z,32.17
2019-03-21T19:48:51.695Z,30.77
2019-03-21T19:51:25.448Z,32.20
2019-03-21T19:53:58.974Z,33.55
2019-03-21T19:56:32.654Z,32.33
2019-03-21T19:59:06.185Z,29.72
2019-03-21T20:01:39.780Z,32.03
2019-03-21T20:04:13.377Z,33.73
2019-03-21T20:06:47.047Z,34.35
2019-03-21T20:09:20.650Z,38.83
2019-03-21T20:11:54.538Z,43.30
2019-03-21T20:14:28.206Z,35.05
2019-03-21T20:17:01.747Z,34.45
2019-03-21T20:19:35.247Z,32.88
2019-03-21T20:22:08.662Z,38.70
2019-03-21T20:24:42.171Z,35.73
2019-03-21T20:27:15.971Z,33.60
2019-03-21T20:29:49.855Z,33.67
2019-03-21T20:32:23.654Z,31.65
2019-03-21T20:34:57.535Z,30.50
2019-03-21T20:37:31.064Z,28.40
2019-03-21T20:40:09.312Z,28.10
2019-03-21T20:42:43.031Z,32.15
2019-03-21T20:45:19.480Z,31.60
2019-03-21T20:47:53.305Z,29.92
2019-03-21T20:50:26.946Z,31.07
2019-03-21T20:53:00.952Z,32.23
2019-03-21T20:55:34.574Z,30.08
2019-03-21T20:58:08.268Z,33.67
2019-03-21T21:00:41.710Z,33.38
2019-03-21T21:03:15.646Z,33.78
2019-03-21T21:05:49.219Z,30.77
2019-03-21T21:08:22.908Z,30.57
2019-03-21T21:10:56.546Z,33.13
2019-03-21T21:13:30.065Z,37.83
2019-03-21T21:16:03.795Z,37.67
2019-03-21T21:18:37.514Z,35.33
2019-03-21T21:21:10.987Z,34.20
2019-03-21T21:23:44.663Z,37.30
2019-03-21T21:26:18.331Z,34.05
2019-03-21T21:28:51.875Z,31.70
2019-03-21T21:31:26.892Z,38.00
2019-03-21T21:34:01.250Z,33.98
2019-03-21T21:36:35.293Z,33.28
2019-03-21T21:39:09.408Z,35.43
2019-03-21T21:41:46.764Z,38.02
2019-03-21T21:44:20.817Z,38.95
2019-03-21T21:46:54.866Z,43.02
2019-03-21T21:49:29.843Z,42.25
2019-03-21T21:52:05.057Z,38.65
2019-03-21T21:54:38.921Z,41.85
2019-03-21T21:57:13.102Z,42.23
2019-03-21T21:59:47.275Z,42.23
2019-03-21T22:02:21.419Z,42.25
2019-03-21T22:04:55.408Z,40.10
2019-03-21T22:07:29.772Z,40.48
2019-03-21T22:10:04.985Z,40.90
2019-03-21T22:12:39.341Z,41.00
2019-03-21T22:15:17.053Z,42.38
2019-03-21T22:17:52.717Z,42.48
2019-03-21T22:20:26.745Z,42.90
2019-03-21T22:23:00.735Z,43.52
2019-03-21T22:25:34.817Z,44.03
2019-03-21T22:28:10.190Z,40.60
2019-03-21T22:30:44.440Z,41.88
2019-03-21T22:33:18.610Z,41.20
2019-03-21T22:35:52.599Z,40.83
2019-03-21T22:38:26.598Z,40.20
2019-03-21T22:41:00.680Z,41.53
2019-03-21T22:43:34.683Z,40.98
2019-03-21T22:46:09.113Z,41.85
2019-03-21T22:48:43.025Z,40.73
2019-03-21T22:51:18.211Z,40.38
2019-03-21T22:53:52.408Z,39.95
2019-03-21T22:56:26.360Z,40.35
2019-03-21T22:59:00.456Z,40.05
2019-03-21T23:01:35.866Z,38.65
2019-03-21T23:04:09.774Z,37.80
2019-03-21T23:06:43.785Z,39.63
2019-03-21T23:09:17.214Z,40.70
2019-03-21T23:11:51.229Z,39.25
2019-03-21T23:14:24.885Z,38.00
2019-03-21T23:17:00.168Z,38.27
2019-03-21T23:19:34.235Z,37.33
2019-03-21T23:22:08.156Z,39.95
2019-03-21T23:24:42.192Z,37.98
2019-03-21T23:27:16.111Z,39.15
2019-03-21T23:29:51.237Z,37.28
2019-03-21T23:32:25.299Z,37.40
2019-03-21T23:34:59.487Z,35.23
2019-03-21T23:37:33.424Z,34.80
2019-03-21T23:40:12.884Z,37.80
2019-03-21T23:42:46.512Z,37.30
2019-03-21T23:45:21.340Z,37.65
2019-03-21T23:47:55.364Z,35.98
2019-03-21T23:50:29.577Z,36.03
2019-03-21T23:53:03.733Z,36.63
2019-03-21T23:55:37.840Z,33.38
2019-03-21T23:58:11.750Z,35.23
